Time;durP1;ratioP1;P1;durP2;ratioP2;P2;SDS_P1;SDS_P2;PMS_P1;PMS_P2;Temp;Humidity;BMP_temperature;BMP_pressure;BME280_temperature;BME280_humidity;BME280_pressure;Samples;Min_cycle;Max_cycle;Signal;HPM_P1;HPM_P2
2021/09/03 00:00:01;;;;;;;1.17;0.98;;;15.80;79.40;;;;;;4952226;28;20063;-81
2021/09/03 00:02:29;;;;;;;1.58;1.05;;;15.80;79.20;;;;;;4958606;28;20046;-82
2021/09/03 00:04:55;;;;;;;1.15;1.00;;;15.80;79.30;;;;;;4947083;28;20038;-82
2021/09/03 00:07:21;;;;;;;1.52;0.70;;;15.80;79.30;;;;;;4980444;28;20045;-83
2021/09/03 00:09:47;;;;;;;0.75;0.70;;;15.70;79.30;;;;;;4947790;28;20397;-83
2021/09/03 00:12:13;;;;;;;1.27;0.95;;;15.80;79.50;;;;;;4964756;28;20047;-82
2021/09/03 00:14:41;;;;;;;1.85;1.05;;;15.70;79.50;;;;;;4957947;28;20413;-83
2021/09/03 00:17:07;;;;;;;1.60;0.85;;;15.60;79.50;;;;;;4937072;28;20039;-83
2021/09/03 00:20:01;;;;;;;1.63;1.00;;;15.60;79.60;;;;;;4972747;28;20057;-82
2021/09/03 00:22:27;;;;;;;1.42;1.10;;;15.60;79.60;;;;;;4876005;29;20524;-81
2021/09/03 00:24:53;;;;;;;1.13;1.00;;;15.60;80.20;;;;;;4880747;29;20048;-81
2021/09/03 00:27:54;;;;;;;1.80;1.20;;;15.60;79.60;;;;;;4882861;29;20064;-82
2021/09/03 00:30:20;;;;;;;1.00;0.90;;;15.60;79.70;;;;;;4877320;29;20503;-80
2021/09/03 00:32:46;;;;;;;1.35;0.95;;;15.60;79.70;;;;;;4878888;29;20115;-80
2021/09/03 00:35:18;;;;;;;1.40;1.23;;;15.60;79.60;;;;;;4879309;29;20444;-82
2021/09/03 00:40:46;;;;;;;1.88;1.23;;;15.60;79.80;;;;;;4787221;29;20621;-79
2021/09/03 00:43:15;;;;;;;1.98;1.10;;;15.50;79.90;;;;;;4804200;29;20043;-79
2021/09/03 00:45:41;;;;;;;1.83;1.02;;;15.50;79.90;;;;;;4806716;29;20137;-79
2021/09/03 00:48:09;;;;;;;1.67;1.10;;;15.50;80.00;;;;;;4894335;29;20128;-79
2021/09/03 00:50:36;;;;;;;1.40;1.10;;;15.50;80.00;;;;;;4881149;29;20281;-80
2021/09/03 00:53:04;;;;;;;1.42;0.90;;;15.50;80.00;;;;;;4889917;29;20075;-79
2021/09/03 00:55:30;;;;;;;1.17;0.98;;;15.40;80.00;;;;;;4915386;29;20044;-80
2021/09/03 00:57:56;;;;;;;1.05;0.90;;;15.40;80.00;;;;;;4915124;29;20040;-81
2021/09/03 01:00:21;;;;;;;1.15;1.00;;;15.40;80.10;;;;;;4915059;29;20072;-80
2021/09/03 01:02:47;;;;;;;2.08;1.13;;;15.40;80.10;;;;;;4899385;29;20557;-80
2021/09/03 01:05:13;;;;;;;2.13;1.25;;;15.40;80.10;;;;;;4929969;29;20152;-80
2021/09/03 01:07:39;;;;;;;1.23;1.10;;;15.40;80.20;;;;;;4953590;29;20465;-80
2021/09/03 01:10:05;;;;;;;1.63;0.90;;;15.40;80.30;;;;;;4954234;28;20047;-80
2021/09/03 01:12:31;;;;;;;1.08;0.85;;;15.40;80.30;;;;;;4955657;28;20106;-81
2021/09/03 01:14:57;;;;;;;1.75;1.10;;;15.30;80.30;;;;;;4922192;28;20497;-80
2021/09/03 01:17:23;;;;;;;2.58;1.38;;;15.30;80.40;;;;;;4972196;28;20050;-80
2021/09/03 01:19:50;;;;;;;1.02;0.88;;;15.30;80.50;;;;;;4938259;29;20126;-80
2021/09/03 01:22:22;;;;;;;1.33;0.90;;;15.30;80.50;;;;;;4942280;28;20561;-80
2021/09/03 01:24:47;;;;;;;;;;;15.20;81.20;;;;;;4955366;28;20043;-80
2021/09/03 01:27:14;;;;;;;1.42;1.00;;;15.20;80.50;;;;;;4939699;29;20387;-80
2021/09/03 01:29:39;;;;;;;1.77;1.00;;;15.30;80.50;;;;;;4939688;29;20054;-80
2021/09/03 01:32:05;;;;;;;2.67;1.30;;;15.20;80.50;;;;;;4937720;28;20053;-80
2021/09/03 01:34:31;;;;;;;1.45;1.10;;;15.20;80.60;;;;;;4953560;28;20402;-80
2021/09/03 01:36:57;;;;;;;1.70;0.98;;;15.20;80.60;;;;;;4939687;29;20043;-79
2021/09/03 01:39:22;;;;;;;1.60;1.13;;;15.10;80.60;;;;;;4937818;28;20035;-79
2021/09/03 01:41:48;;;;;;;1.73;1.20;;;15.20;80.80;;;;;;4955495;28;20537;-79
2021/09/03 01:44:14;;;;;;;1.27;0.98;;;15.20;80.80;;;;;;4937803;29;20410;-80
2021/09/03 01:46:40;;;;;;;1.08;0.98;;;15.10;80.80;;;;;;4937315;29;20035;-79
2021/09/03 01:49:05;;;;;;;2.08;1.30;;;15.10;80.80;;;;;;4954819;28;20398;-79
2021/09/03 01:51:31;;;;;;;1.63;0.88;;;15.00;80.80;;;;;;4937357;28;20113;-79
2021/09/03 01:53:57;;;;;;;1.63;1.00;;;15.20;81.60;;;;;;4954715;28;20364;-80
2021/09/03 01:56:23;;;;;;;1.67;1.05;;;15.10;81.00;;;;;;4937933;28;20047;-79
2021/09/03 01:58:49;;;;;;;1.15;0.90;;;15.20;81.10;;;;;;4937336;28;20413;-79
2021/09/03 02:01:15;;;;;;;2.30;1.23;;;15.00;81.10;;;;;;4954631;28;20043;-79
2021/09/03 02:03:40;;;;;;;1.58;1.17;;;15.00;81.10;;;;;;4937221;28;20047;-79
2021/09/03 02:06:06;;;;;;;1.67;1.27;;;15.00;81.20;;;;;;4937708;29;20070;-80
2021/09/03 02:08:32;;;;;;;1.77;1.20;;;15.00;81.50;;;;;;4937231;29;20130;-79
2021/09/03 02:10:57;;;;;;;2.50;1.30;;;14.90;81.30;;;;;;4954351;28;20077;-80
2021/09/03 02:13:23;;;;;;;1.65;1.10;;;14.90;81.30;;;;;;4968878;28;20066;-79
2021/09/03 02:15:49;;;;;;;1.02;0.93;;;14.90;81.30;;;;;;4936995;28;20071;-80
2021/09/03 02:18:15;;;;;;;1.80;1.20;;;14.90;81.40;;;;;;4954642;28;20438;-80
2021/09/03 02:20:42;;;;;;;1.15;0.90;;;14.90;81.50;;;;;;4953322;28;20039;-80
2021/09/03 02:23:07;;;;;;;2.33;1.38;;;14.90;81.60;;;;;;4953428;28;20047;-80
2021/09/03 02:25:33;;;;;;;1.65;1.17;;;14.90;81.60;;;;;;4922900;29;20130;-80
2021/09/03 02:27:59;;;;;;;2.25;1.25;;;14.90;81.60;;;;;;4956491;28;20073;-79
2021/09/03 02:30:25;;;;;;;2.75;1.20;;;14.80;81.50;;;;;;4942231;28;20093;-80
2021/09/03 02:32:51;;;;;;;2.50;1.30;;;14.80;81.60;;;;;;4956000;28;20047;-80
2021/09/03 02:35:17;;;;;;;2.15;1.40;;;14.80;81.70;;;;;;4942565;29;20470;-79
2021/09/03 02:37:43;;;;;;;2.58;1.30;;;14.80;81.70;;;;;;4942302;28;20039;-80
2021/09/03 02:40:10;;;;;;;1.85;1.20;;;14.80;81.80;;;;;;4940677;28;20513;-80
2021/09/03 02:42:36;;;;;;;2.13;1.27;;;14.80;81.80;;;;;;4957269;28;20485;-80
2021/09/03 02:45:02;;;;;;;2.40;1.30;;;14.80;81.90;;;;;;4959032;28;20097;-80
2021/09/03 02:47:28;;;;;;;1.63;1.17;;;14.70;81.80;;;;;;4940472;28;20047;-80
2021/09/03 02:49:54;;;;;;;2.97;1.63;;;14.70;82.50;;;;;;4957795;28;20532;-80
2021/09/03 02:52:19;;;;;;;1.85;1.17;;;14.70;81.90;;;;;;4951801;29;20613;-80
2021/09/03 02:54:45;;;;;;;2.17;1.20;;;14.70;82.00;;;;;;4940096;28;20058;-80
2021/09/03 02:57:11;;;;;;;1.90;1.38;;;14.70;82.00;;;;;;4940132;29;20094;-79
2021/09/03 02:59:36;;;;;;;2.22;1.40;;;14.70;82.00;;;;;;4940328;29;20046;-79
2021/09/03 03:02:03;;;;;;;3.78;1.50;;;14.70;82.00;;;;;;4940293;29;20118;-79
2021/09/03 03:04:29;;;;;;;2.45;1.20;;;14.70;82.20;;;;;;4940279;28;20379;-79
2021/09/03 03:06:55;;;;;;;1.42;1.10;;;14.60;82.20;;;;;;4957126;28;20043;-79
2021/09/03 03:09:20;;;;;;;1.58;0.95;;;14.60;82.20;;;;;;4940193;28;20130;-79
2021/09/03 03:11:46;;;;;;;2.42;1.25;;;14.60;82.20;;;;;;4940044;28;20539;-80
2021/09/03 03:14:15;;;;;;;1.67;1.00;;;14.60;82.30;;;;;;4940225;29;20063;-80
2021/09/03 03:16:41;;;;;;;2.05;1.20;;;14.60;82.30;;;;;;4955832;28;20046;-80
2021/09/03 03:19:06;;;;;;;1.40;1.17;;;14.50;82.30;;;;;;4940166;29;20413;-80
2021/09/03 03:21:32;;;;;;;2.38;1.27;;;14.50;82.40;;;;;;4957378;28;20486;-81
2021/09/03 03:23:58;;;;;;;1.75;1.10;;;14.50;82.50;;;;;;4957492;28;20101;-80
2021/09/03 03:26:24;;;;;;;2.00;1.20;;;14.50;82.50;;;;;;4935556;29;20140;-80
2021/09/03 03:28:50;;;;;;;1.92;1.45;;;14.40;82.50;;;;;;4919931;29;20166;-80
2021/09/03 03:31:15;;;;;;;1.55;1.17;;;14.40;82.50;;;;;;4935868;29;20082;-80
2021/09/03 03:33:41;;;;;;;3.40;1.70;;;14.40;82.50;;;;;;4937912;29;20081;-80
2021/09/03 03:36:07;;;;;;;3.22;1.50;;;14.40;82.60;;;;;;4919693;29;20044;-80
2021/09/03 03:38:32;;;;;;;2.38;1.50;;;14.40;82.60;;;;;;4935000;29;20103;-80
2021/09/03 03:40:58;;;;;;;1.85;1.25;;;14.40;82.60;;;;;;4935609;29;20143;-80
2021/09/03 03:43:24;;;;;;;3.10;1.48;;;14.40;82.60;;;;;;4935403;29;20490;-80
2021/09/03 03:45:49;;;;;;;1.65;1.23;;;14.40;82.70;;;;;;4921708;29;20130;-80
2021/09/03 03:48:15;;;;;;;1.17;1.08;;;14.40;82.70;;;;;;4937065;29;20099;-80
2021/09/03 03:50:41;;;;;;;2.33;1.23;;;14.30;82.70;;;;;;4935505;29;20056;-80
2021/09/03 03:53:06;;;;;;;2.00;1.20;;;14.30;82.70;;;;;;4935383;29;20043;-80
2021/09/03 03:55:32;;;;;;;1.67;1.20;;;14.30;82.80;;;;;;4919150;29;21270;-80
2021/09/03 03:57:58;;;;;;;1.65;1.27;;;14.30;82.80;;;;;;4924847;28;20077;-80
2021/09/03 04:00:23;;;;;;;1.73;1.10;;;14.30;82.90;;;;;;4956519;28;20039;-80
2021/09/03 04:02:49;;;;;;;2.03;1.23;;;14.30;82.90;;;;;;4956864;28;20071;-80
2021/09/03 04:05:15;;;;;;;2.65;1.50;;;14.20;82.90;;;;;;4954892;28;20062;-80
2021/09/03 04:07:40;;;;;;;1.73;1.23;;;14.20;82.90;;;;;;4939154;28;20494;-80
2021/09/03 04:10:07;;;;;;;2.22;1.20;;;14.20;83.00;;;;;;4956281;28;20085;-80
2021/09/03 04:12:32;;;;;;;2.03;1.20;;;14.20;83.00;;;;;;4939748;28;20039;-80
2021/09/03 04:14:58;;;;;;;1.92;1.35;;;14.20;83.10;;;;;;4956438;28;20047;-81
2021/09/03 04:17:24;;;;;;;3.53;1.30;;;14.20;83.10;;;;;;4939306;28;20047;-80
2021/09/03 04:19:49;;;;;;;2.22;1.40;;;14.20;83.10;;;;;;4939176;28;20183;-79
2021/09/03 04:22:15;;;;;;;1.90;1.23;;;14.20;83.10;;;;;;4955039;28;20093;-80
2021/09/03 04:24:41;;;;;;;2.97;1.50;;;14.10;83.10;;;;;;4956057;28;20052;-80
2021/09/03 04:27:07;;;;;;;2.28;1.45;;;14.20;83.20;;;;;;4955925;28;20050;-80
2021/09/03 04:29:32;;;;;;;3.15;1.70;;;14.10;83.20;;;;;;4939056;29;20047;-80
2021/09/03 04:31:58;;;;;;;2.25;1.40;;;14.10;83.30;;;;;;4956070;28;20521;-80
2021/09/03 04:34:23;;;;;;;3.05;1.70;;;14.10;83.30;;;;;;4956093;28;20405;-80
2021/09/03 04:36:49;;;;;;;1.75;1.25;;;14.10;83.40;;;;;;4955825;28;20062;-80
2021/09/03 04:39:15;;;;;;;1.98;1.35;;;14.10;83.40;;;;;;4955749;28;20050;-80
2021/09/03 04:41:41;;;;;;;2.50;1.45;;;13.90;83.30;;;;;;4940506;28;20054;-80
2021/09/03 04:44:06;;;;;;;3.70;1.80;;;14.00;83.40;;;;;;4939118;28;20474;-80
2021/09/03 04:46:32;;;;;;;2.63;1.70;;;14.00;83.50;;;;;;4955808;28;20063;-80
2021/09/03 04:48:58;;;;;;;2.97;1.50;;;14.00;83.60;;;;;;4954784;28;20063;-80
2021/09/03 04:51:23;;;;;;;1.95;1.33;;;13.90;83.60;;;;;;4954682;28;20510;-82
2021/09/03 04:53:49;;;;;;;2.45;1.65;;;14.00;83.70;;;;;;4958788;28;20470;-80
2021/09/03 04:56:15;;;;;;;2.65;1.67;;;13.90;83.60;;;;;;4956121;28;20528;-80
2021/09/03 04:58:41;;;;;;;2.47;1.45;;;14.00;83.70;;;;;;4938692;28;20039;-80
2021/09/03 05:01:06;;;;;;;2.30;1.35;;;13.90;83.70;;;;;;4940854;28;20046;-80
2021/09/03 05:03:32;;;;;;;1.65;1.35;;;13.90;83.70;;;;;;4938646;29;20043;-80
2021/09/03 05:05:58;;;;;;;1.90;1.20;;;13.90;83.70;;;;;;4938523;29;20047;-80
2021/09/03 05:08:23;;;;;;;3.60;1.75;;;13.90;83.70;;;;;;4938634;29;20121;-80
2021/09/03 05:10:49;;;;;;;2.30;1.45;;;13.90;83.70;;;;;;4954387;28;20404;-79
2021/09/03 05:13:15;;;;;;;2.30;1.42;;;13.90;83.80;;;;;;4940190;29;20113;-80
2021/09/03 05:15:43;;;;;;;2.55;1.50;;;13.90;83.80;;;;;;4938331;28;20058;-80
2021/09/03 05:18:09;;;;;;;3.08;1.75;;;13.90;83.80;;;;;;4953873;28;20148;-80
2021/09/03 05:20:35;;;;;;;2.75;1.70;;;13.90;83.80;;;;;;4953650;28;20499;-80
2021/09/03 05:23:00;;;;;;;2.58;1.52;;;13.90;83.80;;;;;;4937933;29;20046;-80
2021/09/03 05:25:26;;;;;;;2.92;1.70;;;13.90;83.80;;;;;;4955447;28;20070;-80
2021/09/03 05:27:52;;;;;;;3.00;1.58;;;13.90;83.80;;;;;;4937791;28;20082;-79
2021/09/03 05:30:18;;;;;;;3.25;1.70;;;13.90;83.80;;;;;;4921729;28;20043;-79
2021/09/03 05:32:44;;;;;;;2.40;1.48;;;13.90;83.90;;;;;;4954870;28;20130;-80
2021/09/03 05:35:10;;;;;;;2.83;1.85;;;13.90;83.90;;;;;;4938161;28;20094;-80
2021/09/03 05:37:37;;;;;;;3.08;1.67;;;13.90;83.90;;;;;;4937580;29;20078;-81
2021/09/03 05:40:05;;;;;;;3.05;1.45;;;13.90;83.90;;;;;;4953437;28;20829;-81
2021/09/03 05:42:31;;;;;;;2.28;1.40;;;13.90;83.80;;;;;;4937681;28;20587;-80
2021/09/03 05:44:57;;;;;;;1.70;1.27;;;13.90;83.80;;;;;;4956057;28;20043;-80
2021/09/03 05:47:23;;;;;;;3.17;1.70;;;13.90;83.80;;;;;;4937819;28;20142;-80
2021/09/03 05:49:48;;;;;;;2.22;1.48;;;13.90;83.70;;;;;;4921799;28;20073;-80
2021/09/03 05:52:14;;;;;;;2.88;1.60;;;13.90;83.70;;;;;;4940269;28;20043;-81
2021/09/03 05:54:40;;;;;;;3.08;1.50;;;14.10;83.80;;;;;;4939535;28;20055;-81
2021/09/03 05:57:06;;;;;;;2.25;1.40;;;14.00;83.70;;;;;;4937940;28;20106;-80
2021/09/03 05:59:32;;;;;;;3.15;1.75;;;14.10;83.70;;;;;;4937924;28;20449;-80
2021/09/03 06:01:58;;;;;;;3.15;1.65;;;14.00;83.60;;;;;;4954428;28;20035;-80
2021/09/03 06:04:30;;;;;;;2.65;1.58;;;14.10;83.60;;;;;;4939508;28;20039;-80
2021/09/03 06:06:56;;;;;;;2.70;1.52;;;14.10;83.60;;;;;;4936985;28;20035;-80
2021/09/03 06:09:22;;;;;;;3.17;1.92;;;14.10;83.50;;;;;;4941858;28;20404;-80
2021/09/03 06:11:48;;;;;;;3.60;1.80;;;14.20;84.10;;;;;;4937572;28;20039;-81
2021/09/03 06:14:14;;;;;;;2.95;1.85;;;14.20;83.50;;;;;;4937105;28;20126;-82
2021/09/03 06:17:30;;;;;;;3.28;1.90;;;14.30;83.40;;;;;;4934263;28;20129;-83
2021/09/03 06:19:46;;;;;;;2.97;1.70;;;14.30;83.40;;;;;;4923669;29;20457;-81
2021/09/03 06:22:14;;;;;;;2.38;1.65;;;14.40;83.30;;;;;;4942876;29;20040;-80
2021/09/03 06:25:18;;;;;;;2.78;1.60;;;14.40;83.20;;;;;;4945349;29;20055;-82
2021/09/03 06:27:44;;;;;;;2.60;1.40;;;14.50;83.20;;;;;;4915466;29;20119;-81
2021/09/03 06:30:10;;;;;;;2.63;1.55;;;14.60;83.10;;;;;;4896615;29;20045;-81
2021/09/03 06:32:37;;;;;;;4.18;1.83;;;14.60;83.00;;;;;;4876463;29;20053;-81
2021/09/03 06:35:05;;;;;;;2.53;1.55;;;14.70;83.00;;;;;;4876242;29;20053;-81
2021/09/03 06:37:31;;;;;;;2.08;1.50;;;14.80;83.00;;;;;;4860861;29;20041;-81
2021/09/03 06:39:58;;;;;;;2.85;1.50;;;14.90;83.00;;;;;;4894641;29;20049;-81
2021/09/03 06:42:26;;;;;;;3.35;1.50;;;14.80;82.80;;;;;;4896969;29;20646;-81
2021/09/03 06:44:55;;;;;;;4.03;2.20;;;14.80;82.70;;;;;;4910636;29;20052;-81
2021/09/03 06:47:21;;;;;;;3.38;2.00;;;14.90;82.70;;;;;;4903974;29;20085;-81
2021/09/03 06:49:48;;;;;;;2.95;1.70;;;14.90;82.70;;;;;;4922768;29;20039;-82
2021/09/03 06:52:14;;;;;;;2.15;1.70;;;15.00;82.60;;;;;;4936921;28;20110;-81
2021/09/03 06:54:41;;;;;;;3.72;1.70;;;15.10;82.60;;;;;;4920941;28;20086;-81
2021/09/03 06:57:07;;;;;;;2.35;1.70;;;15.20;82.50;;;;;;4939411;28;20111;-81
2021/09/03 06:59:33;;;;;;;3.38;2.03;;;15.30;82.50;;;;;;4938678;29;20043;-81
2021/09/03 07:02:00;;;;;;;3.15;1.95;;;15.20;82.40;;;;;;4936774;28;20073;-81
2021/09/03 07:04:26;;;;;;;3.05;1.75;;;15.30;82.40;;;;;;4950821;28;20130;-81
2021/09/03 07:06:52;;;;;;;2.30;1.42;;;15.30;82.30;;;;;;4950983;28;20432;-80
2021/09/03 07:09:19;;;;;;;3.42;1.85;;;15.40;82.30;;;;;;4952632;28;20046;-81
2021/09/03 07:11:45;;;;;;;3.28;2.00;;;15.50;82.30;;;;;;4936617;28;20182;-81
2021/09/03 07:14:11;;;;;;;3.78;2.15;;;15.50;82.30;;;;;;4941868;28;20101;-81
2021/09/03 07:16:37;;;;;;;2.60;1.80;;;15.40;82.20;;;;;;4939987;28;20474;-81
2021/09/03 07:19:03;;;;;;;2.63;1.73;;;15.60;82.20;;;;;;4939802;28;20089;-81
2021/09/03 07:21:31;;;;;;;2.67;1.80;;;15.60;82.20;;;;;;4940305;28;20043;-81
2021/09/03 07:23:58;;;;;;;2.97;1.60;;;15.80;82.30;;;;;;4943874;28;20058;-81
2021/09/03 07:26:25;;;;;;;2.78;1.75;;;15.70;82.70;;;;;;4940411;28;20043;-81
2021/09/03 07:28:51;;;;;;;2.25;1.55;;;15.80;82.10;;;;;;4955484;28;20485;-81
2021/09/03 07:31:17;;;;;;;1.63;1.20;;;15.80;82.10;;;;;;4940188;28;20105;-80
2021/09/03 07:33:43;;;;;;;3.53;1.67;;;15.80;82.00;;;;;;4940060;28;20055;-81
2021/09/03 07:36:08;;;;;;;3.65;1.98;;;15.90;82.00;;;;;;4939574;28;20134;-81
2021/09/03 07:38:34;;;;;;;2.88;1.67;;;16.00;82.00;;;;;;4939533;28;20035;-81
2021/09/03 07:41:00;;;;;;;3.38;1.83;;;16.00;81.90;;;;;;4941988;28;20054;-80
2021/09/03 07:43:26;;;;;;;2.95;1.55;;;16.10;81.90;;;;;;4940757;29;20047;-80
2021/09/03 07:45:54;;;;;;;3.42;1.92;;;16.10;81.80;;;;;;4939184;29;20406;-81
2021/09/03 07:48:20;;;;;;;2.97;1.73;;;16.10;81.70;;;;;;4953159;28;20497;-80
2021/09/03 07:50:46;;;;;;;3.42;1.80;;;16.30;81.70;;;;;;4925785;28;20105;-81
2021/09/03 07:53:13;;;;;;;3.30;1.80;;;16.30;81.70;;;;;;4939182;28;20414;-80
2021/09/03 07:55:39;;;;;;;3.15;1.80;;;16.40;81.60;;;;;;4939251;28;20194;-80
2021/09/03 07:58:06;;;;;;;2.97;1.80;;;16.40;81.50;;;;;;4924996;28;20046;-80
2021/09/03 08:00:33;;;;;;;2.30;1.63;;;16.50;81.40;;;;;;4952880;28;20042;-80
2021/09/03 08:02:59;;;;;;;2.30;1.50;;;16.60;81.40;;;;;;4941009;28;20043;-80
2021/09/03 08:05:25;;;;;;;3.15;1.65;;;16.70;81.30;;;;;;4939373;28;20043;-80
2021/09/03 08:07:51;;;;;;;3.70;1.80;;;16.80;81.30;;;;;;4953410;28;20054;-80
2021/09/03 08:10:17;;;;;;;2.67;1.67;;;16.90;81.20;;;;;;4939091;28;20046;-80
2021/09/03 08:12:44;;;;;;;3.50;1.90;;;17.00;81.00;;;;;;4938999;29;20062;-81
2021/09/03 08:15:11;;;;;;;2.80;1.70;;;17.10;80.80;;;;;;4939121;28;20046;-80
2021/09/03 08:17:37;;;;;;;2.55;1.60;;;17.20;80.60;;;;;;4938899;28;20509;-80
2021/09/03 08:20:05;;;;;;;3.00;1.52;;;17.50;80.50;;;;;;4952647;28;20050;-80
2021/09/03 08:22:31;;;;;;;1.92;1.13;;;17.50;80.20;;;;;;4956679;28;20059;-79
2021/09/03 08:24:57;;;;;;;2.60;1.42;;;17.70;80.10;;;;;;4937546;29;20039;-80
2021/09/03 08:27:23;;;;;;;2.35;1.50;;;17.90;80.00;;;;;;4940855;28;20055;-80
2021/09/03 08:29:49;;;;;;;2.05;1.35;;;18.00;79.80;;;;;;4938760;28;20497;-80
2021/09/03 08:32:15;;;;;;;2.00;1.27;;;18.20;79.50;;;;;;4924949;28;20051;-80
2021/09/03 08:34:42;;;;;;;1.23;1.13;;;18.20;79.40;;;;;;4940799;28;20062;-80
2021/09/03 08:37:08;;;;;;;1.92;1.20;;;18.40;79.40;;;;;;4952619;28;20090;-80
2021/09/03 08:39:34;;;;;;;2.35;1.30;;;18.50;79.10;;;;;;4938853;28;20046;-80
2021/09/03 08:42:00;;;;;;;2.67;1.48;;;18.60;78.90;;;;;;4938850;28;20043;-81
2021/09/03 08:44:34;;;;;;;2.08;1.35;;;18.80;78.90;;;;;;4954768;28;20497;-80
2021/09/03 08:47:00;;;;;;;2.03;1.50;;;19.00;78.70;;;;;;4938871;28;20043;-79
2021/09/03 08:49:26;;;;;;;2.33;1.35;;;19.00;78.60;;;;;;4938595;28;20042;-79
2021/09/03 08:51:53;;;;;;;2.22;1.50;;;19.00;78.50;;;;;;4938710;28;20067;-81
2021/09/03 08:54:20;;;;;;;2.22;1.50;;;19.20;78.50;;;;;;4938703;28;20094;-80
2021/09/03 08:56:46;;;;;;;3.55;1.73;;;19.30;78.40;;;;;;4938167;28;20043;-80
2021/09/03 08:59:12;;;;;;;3.00;1.92;;;19.30;78.40;;;;;;4938474;28;20050;-81
2021/09/03 09:01:38;;;;;;;3.17;1.90;;;19.40;78.30;;;;;;4938522;29;20118;-80
2021/09/03 09:04:15;;;;;;;3.35;1.90;;;19.40;78.20;;;;;;4938120;28;20130;-80
2021/09/03 09:07:01;;;;;;;3.05;1.90;;;19.50;78.20;;;;;;4940400;28;20070;-79
2021/09/03 09:09:33;;;;;;;2.33;1.52;;;19.60;78.10;;;;;;4938166;28;20047;-79
2021/09/03 09:12:05;;;;;;;2.35;1.52;;;19.60;78.10;;;;;;4937893;29;20108;-79
2021/09/03 09:15:07;;;;;;;3.25;1.67;;;19.70;78.00;;;;;;4940328;28;20126;-80
2021/09/03 09:17:38;;;;;;;1.95;1.52;;;19.70;77.80;;;;;;4955539;28;20043;-79
2021/09/03 09:20:07;;;;;;;2.10;1.50;;;19.80;77.90;;;;;;4940616;29;20091;-80
2021/09/03 09:22:56;;;;;;;3.67;1.73;;;19.90;77.80;;;;;;4938526;29;20043;-79
2021/09/03 09:25:24;;;;;;;2.10;1.50;;;20.00;77.70;;;;;;4938271;28;20059;-80
2021/09/03 09:27:51;;;;;;;2.60;1.30;;;20.00;77.50;;;;;;4940286;29;20054;-80
2021/09/03 09:30:24;;;;;;;1.60;1.35;;;20.10;77.60;;;;;;4971922;28;20046;-79
2021/09/03 09:33:11;;;;;;;1.38;1.20;;;20.10;77.60;;;;;;4954125;28;20046;-79
2021/09/03 09:35:50;;;;;;;1.27;1.10;;;20.20;77.50;;;;;;4954752;28;20043;-79
2021/09/03 09:38:18;;;;;;;1.42;1.10;;;20.30;77.50;;;;;;4954401;28;20039;-80
2021/09/03 09:40:46;;;;;;;2.60;1.40;;;20.30;77.40;;;;;;4938667;29;20114;-80
2021/09/03 09:43:36;;;;;;;1.40;1.13;;;20.30;77.30;;;;;;4938038;28;20051;-80
2021/09/03 09:46:19;;;;;;;1.50;1.23;;;20.40;77.30;;;;;;4938091;28;20051;-81
2021/09/03 09:49:10;;;;;;;1.40;1.13;;;20.50;77.30;;;;;;4939004;28;20082;-80
2021/09/03 09:51:44;;;;;;;2.13;1.23;;;20.50;77.20;;;;;;4953153;28;20074;-79
2021/09/03 09:54:15;;;;;;;1.73;1.30;;;20.60;77.10;;;;;;4937537;28;20566;-79
2021/09/03 09:56:45;;;;;;;2.50;1.35;;;20.60;77.10;;;;;;4938058;28;20126;-80
2021/09/03 09:59:12;;;;;;;1.42;1.08;;;20.70;77.00;;;;;;4937525;29;20138;-80
2021/09/03 10:01:41;;;;;;;2.10;1.50;;;20.60;76.90;;;;;;4971587;28;20065;-79
2021/09/03 10:04:11;;;;;;;2.60;1.73;;;20.60;76.90;;;;;;4971801;28;20073;-79
2021/09/03 10:06:39;;;;;;;2.40;1.65;;;20.60;76.90;;;;;;4971592;28;20047;-79
2021/09/03 10:09:09;;;;;;;2.22;1.60;;;20.60;76.90;;;;;;4955592;28;20501;-79
2021/09/03 10:11:38;;;;;;;2.88;1.60;;;20.60;76.90;;;;;;4971801;28;20055;-80
2021/09/03 10:14:05;;;;;;;1.73;1.38;;;20.60;76.80;;;;;;4971810;28;20061;-80
2021/09/03 10:16:32;;;;;;;2.25;1.45;;;20.60;76.80;;;;;;4971377;28;20054;-79
2021/09/03 10:19:00;;;;;;;1.88;1.40;;;20.60;76.80;;;;;;4971533;28;20046;-79
2021/09/03 10:21:27;;;;;;;2.60;1.50;;;20.60;76.80;;;;;;4971751;28;20047;-79
2021/09/03 10:24:05;;;;;;;2.70;1.63;;;20.60;76.70;;;;;;4971985;28;20047;-79
2021/09/03 10:26:34;;;;;;;2.20;1.25;;;20.60;76.70;;;;;;4955217;28;20070;-78
2021/09/03 10:29:23;;;;;;;2.17;1.35;;;20.60;76.70;;;;;;4972254;28;20055;-79
2021/09/03 10:32:16;;;;;;;1.60;1.27;;;20.70;76.70;;;;;;4968713;28;20126;-79
2021/09/03 10:34:50;;;;;;;2.08;1.50;;;20.70;76.70;;;;;;4953544;28;20498;-79
2021/09/03 10:37:26;;;;;;;2.42;1.38;;;20.70;76.60;;;;;;4954544;28;20039;-81
2021/09/03 10:40:06;;;;;;;2.25;1.42;;;20.60;76.30;;;;;;4941642;28;20082;-81
2021/09/03 10:42:45;;;;;;;1.95;1.60;;;20.70;76.30;;;;;;4938942;28;20118;-80
2021/09/03 10:45:21;;;;;;;1.70;1.35;;;20.70;76.10;;;;;;4953398;28;20047;-79
2021/09/03 10:47:59;;;;;;;1.73;1.40;;;20.70;76.00;;;;;;4956640;28;20043;-79
2021/09/03 10:50:37;;;;;;;2.80;1.45;;;20.80;76.00;;;;;;4944621;28;20047;-80
2021/09/03 10:53:23;;;;;;;1.45;1.20;;;20.80;75.80;;;;;;4938412;29;20043;-80
2021/09/03 10:56:05;;;;;;;2.40;1.40;;;20.80;75.70;;;;;;4936745;29;20052;-80
2021/09/03 10:58:47;;;;;;;3.53;1.60;;;20.90;75.60;;;;;;4922349;29;20040;-81
2021/09/03 11:01:31;;;;;;;2.80;1.50;;;20.90;75.60;;;;;;4936468;29;20601;-79
2021/09/03 11:03:59;;;;;;;2.60;1.50;;;20.90;75.50;;;;;;4922467;29;20050;-79
2021/09/03 11:06:33;;;;;;;3.30;1.77;;;20.90;75.40;;;;;;4950569;29;20507;-81
2021/09/03 11:09:02;;;;;;;2.00;1.48;;;21.00;75.30;;;;;;4937881;29;20043;-80
2021/09/03 11:11:39;;;;;;;2.83;1.60;;;21.00;75.20;;;;;;4969846;28;20146;-79
2021/09/03 11:14:13;;;;;;;2.20;1.58;;;21.00;75.10;;;;;;4936133;29;20611;-79
2021/09/03 11:16:44;;;;;;;2.17;1.23;;;21.10;75.10;;;;;;4936543;29;20048;-79
2021/09/03 11:19:17;;;;;;;2.55;1.55;;;21.20;75.00;;;;;;4935933;29;20109;-81
2021/09/03 11:21:52;;;;;;;2.25;1.63;;;21.20;74.90;;;;;;4935819;29;20043;-80
2021/09/03 11:24:21;;;;;;;2.28;1.63;;;21.30;74.80;;;;;;4940880;28;20043;-81
2021/09/03 11:26:50;;;;;;;2.92;1.80;;;21.30;74.80;;;;;;4939965;29;20051;-80
2021/09/03 11:29:23;;;;;;;1.83;1.33;;;21.30;74.60;;;;;;4956022;28;20490;-80
2021/09/03 11:31:54;;;;;;;1.98;1.60;;;21.40;74.50;;;;;;4941110;28;20050;-81
2021/09/03 11:34:39;;;;;;;;;;;21.50;74.30;;;;;;4941422;28;20035;-81
2021/09/03 11:37:05;;;;;;;2.58;1.30;;;21.60;74.20;;;;;;4955235;28;19961;-80
2021/09/03 11:39:33;;;;;;;3.05;1.70;;;21.60;74.00;;;;;;4939847;28;20068;-81
2021/09/03 11:41:59;;;;;;;2.33;1.58;;;21.70;73.90;;;;;;4941681;28;20053;-80
2021/09/03 11:44:25;;;;;;;1.95;1.30;;;21.80;73.80;;;;;;4940335;28;20069;-81
2021/09/03 11:46:51;;;;;;;1.63;1.33;;;21.80;73.70;;;;;;4940144;28;20498;-80
2021/09/03 11:49:21;;;;;;;1.25;1.05;;;21.90;73.50;;;;;;4940325;28;20047;-80
2021/09/03 11:51:47;;;;;;;2.47;1.52;;;22.00;73.40;;;;;;4939870;28;20126;-80
2021/09/03 11:54:15;;;;;;;2.28;1.60;;;22.10;73.30;;;;;;4942182;28;20050;-82
2021/09/03 11:56:41;;;;;;;2.47;1.40;;;22.20;73.10;;;;;;4939772;28;20478;-81
2021/09/03 11:59:07;;;;;;;1.60;1.23;;;22.20;73.10;;;;;;4941636;28;20039;-81
2021/09/03 12:01:34;;;;;;;1.88;1.38;;;22.20;73.00;;;;;;4940647;28;20039;-81
2021/09/03 12:04:08;;;;;;;2.83;1.55;;;22.20;72.90;;;;;;4939773;28;20035;-80
2021/09/03 12:06:36;;;;;;;1.90;1.40;;;22.30;72.80;;;;;;4959074;28;20039;-80
2021/09/03 12:09:02;;;;;;;1.83;1.38;;;22.40;72.70;;;;;;4940369;28;20094;-80
2021/09/03 12:11:34;;;;;;;1.60;1.25;;;22.40;72.50;;;;;;4940224;28;20063;-80
2021/09/03 12:14:00;;;;;;;2.17;1.33;;;22.50;72.40;;;;;;4941767;28;20074;-80
2021/09/03 12:16:30;;;;;;;2.60;1.55;;;22.50;72.20;;;;;;4941405;28;20048;-81
2021/09/03 12:18:57;;;;;;;;;;;22.50;72.10;;;;;;4957485;28;20055;-82
2021/09/03 12:21:34;;;;;;;1.48;1.20;;;22.60;72.00;;;;;;4954778;28;20014;-80
2021/09/03 12:24:03;;;;;;;3.45;1.45;;;22.70;72.10;;;;;;4956067;28;20576;-82
2021/09/03 12:26:47;;;;;;;1.20;1.10;;;22.70;72.00;;;;;;4938852;29;20043;-81
2021/09/03 12:29:16;;;;;;;1.67;1.10;;;22.70;71.90;;;;;;4955547;28;20073;-82
2021/09/03 12:31:52;;;;;;;1.33;1.10;;;22.70;71.90;;;;;;4939549;29;20117;-80
2021/09/03 12:34:18;;;;;;;1.00;0.90;;;22.70;71.80;;;;;;4940667;28;20043;-81
2021/09/03 12:36:44;;;;;;;1.23;1.10;;;22.80;71.90;;;;;;4954606;28;20406;-81
2021/09/03 12:39:21;;;;;;;1.30;1.20;;;22.80;71.80;;;;;;4954492;28;20043;-81
2021/09/03 12:41:47;;;;;;;2.75;1.20;;;22.90;71.80;;;;;;4955956;28;20039;-80
2021/09/03 12:44:23;;;;;;;1.40;1.00;;;23.00;71.70;;;;;;4956384;28;20042;-81
2021/09/03 12:46:51;;;;;;;1.77;1.20;;;23.00;71.70;;;;;;4956185;28;20035;-81
2021/09/03 12:49:21;;;;;;;1.23;1.02;;;23.00;71.70;;;;;;4939298;29;20137;-81
2021/09/03 12:51:49;;;;;;;1.50;1.13;;;22.90;71.70;;;;;;4940540;28;20540;-81
2021/09/03 12:54:16;;;;;;;1.85;1.17;;;23.00;71.70;;;;;;4941553;28;20039;-81
2021/09/03 12:56:43;;;;;;;1.70;1.10;;;23.00;71.60;;;;;;4939181;28;20051;-81